Cedar Island, North Carolina
Current Conditions -  °F | °C
As of 9:56 AM on Wednesday 17 Dec 2014 (Local Time) from KNBT Reporting Station
Clear Clear  
Wind Chill: 54°   Ceiling: Unl
Heat Index: 54°   Visibility: 10mi
Dew Point: 42°   Wind: 10mph
Humidity: 64%   Direction: 290°WNW
Pressure: 30.1"   Gusts: NA
Location:  35.01°N, 76.32°W
Report Text: KNBT 171456Z AUTO 29009KT 10SM CLR 12/06 A3010 RMK AO2 SLP197 6//// T01220056 51021 PNO $
Loading
Personal Weather Stations






























Interactive Weather Map New forecast layout! Learn more

10-Day Weather Forecast

Advertisements
Track Severe Weather on mobile